createdAt,value
2018-09-27T05:14:40.029Z,97.10
2018-09-27T05:19:37.784Z,97.90
2018-09-27T05:24:35.445Z,98.10
2018-09-27T05:29:33.132Z,98.00
2018-09-27T05:34:30.908Z,98.20
2018-09-27T05:39:28.610Z,97.60
2018-09-27T05:44:26.299Z,97.20
2018-09-27T05:49:24.029Z,96.30
2018-09-27T05:54:21.715Z,95.60
2018-09-27T05:59:19.380Z,93.50
2018-09-27T06:04:17.049Z,92.70
2018-09-27T06:09:14.738Z,92.60
2018-09-27T06:14:12.417Z,92.60
2018-09-27T06:19:10.084Z,91.60
2018-09-27T06:24:07.809Z,89.50
2018-09-27T06:29:05.518Z,90.30
2018-09-27T06:34:03.212Z,91.90
2018-09-27T06:39:00.905Z,92.60
2018-09-27T06:43:58.561Z,93.70
2018-09-27T06:48:56.271Z,94.00
2018-09-27T06:53:53.932Z,93.90
2018-09-27T06:58:51.596Z,94.50
2018-09-27T07:03:49.258Z,94.00
2018-09-27T07:08:46.904Z,94.10
2018-09-27T07:13:44.567Z,93.70
2018-09-27T07:18:42.305Z,92.10
2018-09-27T07:23:39.968Z,91.40
2018-09-27T07:28:37.664Z,90.90
2018-09-27T07:33:35.412Z,88.30
2018-09-27T07:38:33.149Z,85.00
2018-09-27T07:43:30.780Z,88.20
2018-09-27T07:48:28.539Z,86.80
2018-09-27T07:53:26.165Z,81.90
2018-09-27T07:58:23.869Z,79.30
2018-09-27T08:03:21.540Z,77.50
2018-09-27T08:08:19.216Z,73.80
2018-09-27T08:13:16.942Z,74.90
2018-09-27T08:18:14.616Z,73.50
2018-09-27T08:23:12.298Z,71.50
2018-09-27T08:28:10.983Z,69.90
2018-09-27T08:33:08.820Z,68.90
2018-09-27T08:38:06.576Z,69.60
2018-09-27T08:43:04.201Z,67.10
2018-09-27T08:48:01.909Z,68.20
2018-09-27T08:52:59.557Z,67.60
2018-09-27T08:57:57.256Z,69.90
2018-09-27T09:02:54.938Z,71.70
2018-09-27T09:07:52.633Z,70.30
2018-09-27T09:12:50.277Z,71.10
2018-09-27T09:17:47.944Z,70.60
2018-09-27T09:22:45.616Z,69.50
2018-09-27T09:27:43.342Z,70.00
2018-09-27T09:32:40.992Z,70.10
2018-09-27T09:37:38.692Z,68.10
2018-09-27T09:42:36.356Z,66.90
2018-09-27T09:47:34.084Z,64.50
2018-09-27T09:52:31.765Z,62.30
2018-09-27T09:57:30.555Z,62.00
2018-09-27T10:02:28.299Z,61.70
2018-09-27T10:07:25.936Z,57.70
2018-09-27T10:12:23.588Z,57.50
2018-09-27T10:17:21.280Z,56.00
2018-09-27T10:22:18.944Z,54.30
2018-09-27T10:27:16.658Z,54.60
2018-09-27T10:32:14.352Z,54.50
2018-09-27T10:37:12.060Z,55.50
2018-09-27T10:42:09.732Z,52.20
2018-09-27T10:47:07.432Z,52.00
2018-09-27T10:52:05.081Z,52.20
2018-09-27T10:57:02.867Z,50.20
2018-09-27T11:02:00.508Z,49.80
2018-09-27T11:06:58.165Z,50.80
2018-09-27T11:11:55.837Z,49.60
2018-09-27T11:16:53.508Z,48.80
2018-09-27T11:21:51.216Z,48.70
2018-09-27T11:26:48.932Z,48.30
2018-09-27T11:31:52.237Z,48.20
2018-09-27T11:36:49.912Z,47.00
2018-09-27T11:41:47.616Z,46.90
2018-09-27T11:46:45.292Z,46.80
2018-09-27T11:51:42.983Z,47.40
2018-09-27T11:56:40.692Z,46.50
2018-09-27T12:01:38.555Z,48.40
2018-09-27T12:06:36.274Z,47.00
2018-09-27T12:11:34.001Z,46.80
2018-09-27T12:16:31.734Z,46.00
2018-09-27T12:21:29.404Z,46.60
2018-09-27T12:26:27.092Z,46.80
2018-09-27T12:31:24.796Z,45.90
2018-09-27T12:36:22.477Z,45.60
2018-09-27T12:41:20.141Z,46.20
2018-09-27T12:46:17.926Z,46.30
2018-09-27T12:51:15.700Z,45.60
2018-09-27T12:56:13.315Z,45.80
2018-09-27T13:01:11.338Z,45.60
2018-09-27T13:06:09.034Z,45.00
2018-09-27T13:11:06.726Z,45.00
2018-09-27T13:16:04.559Z,44.70
2018-09-27T13:21:02.249Z,45.00
2018-09-27T13:25:59.944Z,44.50
2018-09-27T13:30:57.701Z,43.80
2018-09-27T13:35:55.386Z,43.60
2018-09-27T13:40:53.233Z,43.40
2018-09-27T13:45:51.080Z,43.30
2018-09-27T13:50:48.773Z,42.90
2018-09-27T13:55:46.480Z,42.90
2018-09-27T14:00:44.228Z,42.70
2018-09-27T14:05:41.962Z,43.00
2018-09-27T14:10:39.664Z,43.00
2018-09-27T14:15:37.348Z,42.50
2018-09-27T14:20:35.025Z,42.90
2018-09-27T14:25:32.888Z,42.30
2018-09-27T14:30:30.564Z,42.30
2018-09-27T14:35:28.263Z,42.00
2018-09-27T14:40:26.007Z,42.70
2018-09-27T14:45:23.689Z,42.40
2018-09-27T14:50:21.431Z,43.60
2018-09-27T14:55:19.156Z,44.60
2018-09-27T15:00:16.833Z,44.00
2018-09-27T15:05:14.637Z,45.70
2018-09-27T15:10:12.368Z,46.60
2018-09-27T15:15:10.029Z,47.00
2018-09-27T15:20:08.793Z,49.10
2018-09-27T15:25:06.547Z,50.70
2018-09-27T15:30:04.813Z,51.00
2018-09-27T15:35:02.540Z,52.00
2018-09-27T15:40:00.241Z,52.10
2018-09-27T15:44:57.876Z,52.80
2018-09-27T15:49:55.591Z,53.00
2018-09-27T15:54:53.755Z,51.90
2018-09-27T15:59:51.452Z,53.00
2018-09-27T16:04:49.147Z,50.50
2018-09-27T16:09:46.812Z,46.50
2018-09-27T16:14:44.514Z,45.10
2018-09-27T16:19:42.168Z,44.00
2018-09-27T16:24:39.888Z,46.00
2018-09-27T16:29:37.633Z,50.40
2018-09-27T16:34:35.224Z,54.70
2018-09-27T16:39:33.260Z,57.70
2018-09-27T16:44:30.941Z,58.70
2018-09-27T16:49:28.596Z,61.30
2018-09-27T16:54:26.261Z,60.90
2018-09-27T16:59:23.957Z,65.30
2018-09-27T17:04:21.624Z,67.60
2018-09-27T17:09:19.390Z,70.30
2018-09-27T17:14:17.056Z,72.10
2018-09-27T17:19:14.736Z,74.90
2018-09-27T17:24:12.412Z,76.20
2018-09-27T17:29:10.190Z,79.50
2018-09-27T17:34:08.086Z,80.90
2018-09-27T17:39:06.783Z,83.00
2018-09-27T17:44:04.474Z,85.20
